Snoqualmie River: Snoqualmie Falls station

back to: Snoqualmie river
Snoqualmie Falls station Summary - (NOAA Hydrograph: SQUW1)
flood stage: 12.88 ft
Latest reading:
Tue08/14 03:55 am 2.83 ft 435 cfs (steady)
Past 24hr max:
Mon08/13 11:05 am 2.86 ft 445 cfs
Forecasted crests: (published Mon 08/13/18 02:21 pm)
Wed08/15 11:00 am 2.65 ft 376 cfs
Thu08/16 05:00 am 2.66 ft 377 cfs
Mon08/20 05:00 am 2.65 ft 376 cfs
Mon08/20 11:00 pm 2.65 ft 376 cfs
Tue08/21 11:00 am 2.66 ft 377 cfs
Wed08/22 05:00 am 2.66 ft 377 cfs

Snoqualmie Falls station Details

Latest Readings

Last 100 Readings:
Tue08/14 03:55 am 2.83 ft 435 cfs
Tue08/14 03:50 am 2.83 ft 435 cfs
Tue08/14 03:45 am 2.83 ft 435 cfs
Tue08/14 03:40 am 2.83 ft 435 cfs
Tue08/14 03:35 am 2.83 ft 435 cfs
Tue08/14 03:30 am 2.82 ft 431 cfs
Tue08/14 03:25 am 2.82 ft 431 cfs
Tue08/14 03:20 am 2.82 ft 431 cfs
Tue08/14 03:15 am 2.82 ft 431 cfs
Tue08/14 03:10 am 2.81 ft 428 cfs
Tue08/14 03:05 am 2.82 ft 431 cfs
Tue08/14 03:00 am 2.82 ft 431 cfs
Tue08/14 02:55 am 2.8 ft 424 cfs
Tue08/14 02:50 am 2.82 ft 431 cfs
Tue08/14 02:45 am 2.82 ft 431 cfs
Tue08/14 02:40 am 2.81 ft 428 cfs
Tue08/14 02:35 am 2.81 ft 428 cfs
Tue08/14 02:30 am 2.81 ft 428 cfs
Tue08/14 02:25 am 2.82 ft 431 cfs
Tue08/14 02:20 am 2.82 ft 431 cfs
Tue08/14 02:15 am 2.82 ft 431 cfs
Tue08/14 02:10 am 2.82 ft 431 cfs
Tue08/14 02:05 am 2.82 ft 431 cfs
Tue08/14 02:00 am 2.83 ft 435 cfs
Tue08/14 01:55 am 2.82 ft 431 cfs
Tue08/14 01:50 am 2.82 ft 431 cfs
Tue08/14 01:45 am 2.82 ft 431 cfs
Tue08/14 01:40 am 2.82 ft 431 cfs
Tue08/14 01:35 am 2.83 ft 435 cfs
Tue08/14 01:30 am 2.82 ft 431 cfs
Tue08/14 01:25 am 2.83 ft 435 cfs
Tue08/14 01:20 am 2.82 ft 431 cfs
Tue08/14 01:15 am 2.82 ft 431 cfs
Tue08/14 01:10 am 2.82 ft 431 cfs
Tue08/14 01:05 am 2.82 ft 431 cfs
Tue08/14 01:00 am 2.82 ft 431 cfs
Tue08/14 12:55 am 2.82 ft 431 cfs
Tue08/14 12:50 am 2.82 ft 431 cfs
Tue08/14 12:45 am 2.82 ft 431 cfs
Tue08/14 12:40 am 2.82 ft 431 cfs
Tue08/14 12:35 am 2.82 ft 431 cfs
Tue08/14 12:30 am 2.82 ft 431 cfs
Tue08/14 12:25 am 2.82 ft 431 cfs
Tue08/14 12:20 am 2.81 ft 428 cfs
Tue08/14 12:15 am 2.82 ft 431 cfs
Tue08/14 12:10 am 2.82 ft 431 cfs
Tue08/14 12:05 am 2.82 ft 431 cfs
Tue08/14 12:00 am 2.82 ft 431 cfs
Mon08/13 11:55 pm 2.82 ft 431 cfs
Mon08/13 11:50 pm 2.82 ft 431 cfs
Mon08/13 11:45 pm 2.82 ft 431 cfs
Mon08/13 11:40 pm 2.82 ft 431 cfs
Mon08/13 11:35 pm 2.82 ft 431 cfs
Mon08/13 11:30 pm 2.82 ft 431 cfs
Mon08/13 11:25 pm 2.82 ft 431 cfs
Mon08/13 11:20 pm 2.81 ft 428 cfs
Mon08/13 11:15 pm 2.81 ft 428 cfs
Mon08/13 11:10 pm 2.81 ft 428 cfs
Mon08/13 11:05 pm 2.82 ft 431 cfs
Mon08/13 11:00 pm 2.81 ft 428 cfs
Mon08/13 10:55 pm 2.81 ft 428 cfs
Mon08/13 10:50 pm 2.82 ft 431 cfs
Mon08/13 10:45 pm 2.81 ft 428 cfs
Mon08/13 10:40 pm 2.81 ft 428 cfs
Mon08/13 10:35 pm 2.82 ft 431 cfs
Mon08/13 10:30 pm 2.82 ft 431 cfs
Mon08/13 10:25 pm 2.82 ft 431 cfs
Mon08/13 10:20 pm 2.81 ft 428 cfs
Mon08/13 10:15 pm 2.81 ft 428 cfs
Mon08/13 10:10 pm 2.81 ft 428 cfs
Mon08/13 10:05 pm 2.81 ft 428 cfs
Mon08/13 10:00 pm 2.81 ft 428 cfs
Mon08/13 09:55 pm 2.81 ft 428 cfs
Mon08/13 09:50 pm 2.81 ft 428 cfs
Mon08/13 09:45 pm 2.8 ft 424 cfs
Mon08/13 09:40 pm 2.8 ft 424 cfs
Mon08/13 09:35 pm 2.8 ft 424 cfs
Mon08/13 09:30 pm 2.8 ft 424 cfs
Mon08/13 09:25 pm 2.81 ft 428 cfs
Mon08/13 09:20 pm 2.81 ft 428 cfs
Mon08/13 09:15 pm 2.8 ft 424 cfs
Mon08/13 09:10 pm 2.8 ft 424 cfs
Mon08/13 09:05 pm 2.81 ft 428 cfs
Mon08/13 09:00 pm 2.81 ft 428 cfs
Mon08/13 08:55 pm 2.81 ft 428 cfs
Mon08/13 08:50 pm 2.81 ft 428 cfs
Mon08/13 08:45 pm 2.81 ft 428 cfs
Mon08/13 08:40 pm 2.81 ft 428 cfs
Mon08/13 08:35 pm 2.81 ft 428 cfs
Mon08/13 08:30 pm 2.81 ft 428 cfs
Mon08/13 08:25 pm 2.81 ft 428 cfs
Mon08/13 08:20 pm 2.81 ft 428 cfs
Mon08/13 08:15 pm 2.8 ft 424 cfs
Mon08/13 08:10 pm 2.81 ft 428 cfs
Mon08/13 08:05 pm 2.81 ft 428 cfs
Mon08/13 08:00 pm 2.81 ft 428 cfs
Mon08/13 07:55 pm 2.81 ft 428 cfs
Mon08/13 07:50 pm 2.8 ft 424 cfs
Mon08/13 07:45 pm 2.81 ft 428 cfs
Mon08/13 07:40 pm 2.81 ft 428 cfs

Latest Forecasts

Currently Forecasted Readings:
Mon08/13 05:00 pm 2.67 ft 382 cfs
Mon08/13 11:00 pm 2.66 ft 377 cfs
Tue08/14 05:00 am 2.66 ft 377 cfs
Tue08/14 11:00 am 2.65 ft 376 cfs
Tue08/14 05:00 pm 2.65 ft 376 cfs
Tue08/14 11:00 pm 2.65 ft 375 cfs
Wed08/15 05:00 am 2.65 ft 375 cfs
Wed08/15 11:00 am 2.65 ft 376 cfs
Wed08/15 05:00 pm 2.65 ft 376 cfs
Wed08/15 11:00 pm 2.65 ft 376 cfs
Thu08/16 05:00 am 2.66 ft 377 cfs
Thu08/16 11:00 am 2.66 ft 377 cfs
Thu08/16 05:00 pm 2.65 ft 376 cfs
Thu08/16 11:00 pm 2.65 ft 375 cfs
Fri08/17 05:00 am 2.65 ft 375 cfs
Fri08/17 11:00 am 2.65 ft 375 cfs
Fri08/17 05:00 pm 2.65 ft 375 cfs
Fri08/17 11:00 pm 2.65 ft 375 cfs
Sat08/18 05:00 am 2.65 ft 375 cfs
Sat08/18 11:00 am 2.65 ft 375 cfs
Sat08/18 05:00 pm 2.65 ft 375 cfs
Sat08/18 11:00 pm 2.65 ft 375 cfs
Sun08/19 05:00 am 2.65 ft 375 cfs
Sun08/19 11:00 am 2.65 ft 375 cfs
Sun08/19 05:00 pm 2.65 ft 375 cfs
Sun08/19 11:00 pm 2.65 ft 375 cfs
Mon08/20 05:00 am 2.65 ft 376 cfs
Mon08/20 11:00 am 2.65 ft 375 cfs
Mon08/20 05:00 pm 2.65 ft 375 cfs
Mon08/20 11:00 pm 2.65 ft 376 cfs
Tue08/21 05:00 am 2.65 ft 376 cfs
Tue08/21 11:00 am 2.66 ft 377 cfs
Tue08/21 05:00 pm 2.65 ft 376 cfs
Tue08/21 11:00 pm 2.65 ft 376 cfs
Wed08/22 05:00 am 2.66 ft 377 cfs
Wed08/22 11:00 am 2.66 ft 377 cfs
Wed08/22 05:00 pm 2.66 ft 377 cfs
Wed08/22 11:00 pm 2.66 ft 377 cfs
Thu08/23 05:00 am 2.67 ft 383 cfs

Snoqualmie River flood gauge data supplied by the
National Weather Service Northwest River Forecast Center.

Sign up for Floodzilla alerts.